Mount Laguna, CA

5:27 AM PDT on May 23, 2015 (GMT -0700)
Brown Municipal | | Change Station
CLOSE
Current Station
Airport
Location: San Diego Brown,
Elevation: 525 ft
Nearby Weather Stations

Elev 525 ft 32.57 °N, 116.98 °W | Updated 19 minutes ago

Partly Cloudy
Partly Cloudy
57 °F
Feels Like 57 °F
N
0
Wind Variable Wind from North

Today
High -- | Low -- °F
--% Chance of Precip.
Yesterday
High -- | Low -- °F
Precip. -- in
5:41 AM 7:43 PM
Waxing Crescent, 29% visible
Pressure 30.07 in
Visibility 10.0 miles
Clouds Few 700 ft
Few 2500 ft
Scattered Clouds 4100 ft
Dew Point 56 °F
Humidity 96%
Rainfall 0.05 in
Snow Depth Not available.
UV 0 out of 12
Pollen 6.00 out of 12
Air Quality Not available.
Flu Activity Sporadic
SPECI KSDM 231208Z AUTO 00000KT 10SM FEW007 FEW025 SCT041 14/13 A3007 RMK AO2 T01390133

More Conditions Fewer Conditions

Pressure 30.07 in
Visibility 10.0 miles
Clouds Few 700 ft
Few 2500 ft
Scattered Clouds 4100 ft
Dew Point 56 °F
Humidity 96%
Rainfall 0.05 in
Snow Depth Not available.
UV 0 out of 12
Pollen 6.00 out of 12
Air Quality Not available.
Flu Activity Sporadic
SPECI KSDM 231208Z AUTO 00000KT 10SM FEW007 FEW025 SCT041 14/13 A3007 RMK AO2 T01390133

More Conditions Fewer Conditions

10-Day Weather Forecast

Almanac

Astronomy

May. 23, 2015 Rise Set
Actual Time
Civil Twilight
Nautical Twilight
Astronomical Twilight
Moon
Length of Visible Light
Length of Day
Tomorrow will be .
, % of the Moon is Illuminated

Today's Extremes

State Highs State Lows

Community

WunderPhotos

Upload Photos

1,823,440 photos uploaded!

WunderBlogs® & News

Nearby

Air Quality

  Air Quality AQ Index Pollutant
Not available.

Snow Depth

Station Depth Elevation

Earthquake Activity

City Distance Mag. Time & Date
Minimum magnitude displayed is 2.5.

Coastal Water Temperatures

Place Temperature

Stations

Nearby Weather Stations

Station Location Temp. Windchill Dew Point Humidity Wind Precip. Elev Updated Type